createdAt,value
2023-04-24T00:00:34.394Z,10.25
2023-04-24T00:03:02.156Z,10.21
2023-04-24T00:05:29.777Z,10.19
2023-04-24T00:07:57.299Z,10.16
2023-04-24T00:10:24.774Z,10.12
2023-04-24T00:12:52.331Z,10.13
2023-04-24T00:15:19.925Z,10.08
2023-04-24T00:17:47.559Z,10.05
2023-04-24T00:20:16.096Z,9.96
2023-04-24T00:22:43.556Z,9.80
2023-04-24T00:25:11.240Z,9.89
2023-04-24T00:27:40.041Z,9.87
2023-04-24T00:30:08.442Z,9.91
2023-04-24T00:32:36.080Z,9.93
2023-04-24T00:35:03.929Z,9.91
2023-04-24T00:37:31.536Z,9.87
2023-04-24T00:39:59.263Z,9.90
2023-04-24T00:42:27.104Z,9.87
2023-04-24T00:44:54.868Z,9.92
2023-04-24T00:47:23.226Z,9.95
2023-04-24T00:49:50.759Z,9.94
2023-04-24T00:52:18.981Z,9.98
2023-04-24T00:54:46.751Z,9.98
2023-04-24T00:57:16.686Z,10.08
2023-04-24T00:59:45.504Z,10.03
2023-04-24T01:02:14.232Z,10.06
2023-04-24T01:04:42.151Z,10.08
2023-04-24T01:07:12.026Z,10.12
2023-04-24T01:09:43.446Z,10.14
2023-04-24T01:12:11.325Z,10.20
2023-04-24T01:14:39.617Z,10.21
2023-04-24T01:17:07.146Z,10.19
2023-04-24T01:19:34.704Z,10.19
2023-04-24T01:22:04.952Z,10.30
2023-04-24T01:24:32.487Z,10.25
2023-04-24T01:27:00.247Z,10.29
2023-04-24T01:29:28.104Z,10.32
2023-04-24T01:31:57.160Z,10.40
2023-04-24T01:34:24.938Z,10.49
2023-04-24T01:36:52.470Z,10.54
2023-04-24T01:39:21.896Z,10.59
2023-04-24T01:41:51.000Z,10.64
2023-04-24T01:44:20.509Z,10.63
2023-04-24T01:46:49.146Z,10.72
2023-04-24T01:49:16.912Z,10.78
2023-04-24T01:51:46.381Z,10.84
2023-04-24T01:54:14.335Z,10.96
2023-04-24T01:56:45.604Z,11.10
2023-04-24T01:59:13.566Z,11.11
2023-04-24T02:01:41.320Z,11.18
2023-04-24T02:04:09.436Z,11.30
2023-04-24T02:06:37.114Z,11.37
2023-04-24T02:09:04.708Z,11.47
2023-04-24T02:11:32.224Z,11.56
2023-04-24T02:13:59.809Z,11.65
2023-04-24T02:16:27.483Z,11.73
2023-04-24T02:18:55.002Z,11.78
2023-04-24T02:21:22.513Z,11.92
2023-04-24T02:23:50.027Z,11.99
2023-04-24T02:26:17.839Z,12.14
2023-04-24T02:28:45.300Z,12.22
2023-04-24T02:31:12.884Z,12.31
2023-04-24T02:33:41.980Z,12.45
2023-04-24T02:36:09.551Z,12.59
2023-04-24T02:38:37.154Z,12.72
2023-04-24T02:41:07.623Z,12.95
2023-04-24T02:43:35.203Z,13.22
2023-04-24T02:46:03.190Z,13.38
2023-04-24T02:48:30.933Z,13.57
2023-04-24T02:50:58.898Z,13.82
2023-04-24T02:53:26.589Z,14.13
2023-04-24T02:55:54.114Z,14.43
2023-04-24T02:58:21.998Z,14.72
2023-04-24T03:00:49.818Z,15.13
2023-04-24T03:03:17.429Z,15.44
2023-04-24T03:05:45.098Z,15.69
2023-04-24T03:08:12.590Z,15.99
2023-04-24T03:10:40.085Z,16.30
2023-04-24T03:13:09.143Z,16.68
2023-04-24T03:15:36.617Z,16.99
2023-04-24T03:18:04.297Z,17.34
2023-04-24T03:20:32.040Z,17.59
2023-04-24T03:23:00.073Z,17.85
2023-04-24T03:25:28.074Z,18.02
2023-04-24T03:27:56.108Z,18.14
2023-04-24T03:30:45.327Z,18.40
2023-04-24T03:33:14.385Z,18.61
2023-04-24T03:35:50.588Z,18.87
2023-04-24T03:38:18.168Z,19.03
2023-04-24T03:40:54.907Z,19.10
2023-04-24T03:43:42.534Z,19.15
2023-04-24T03:46:11.567Z,19.17
2023-04-24T03:48:43.557Z,19.20
2023-04-24T03:51:12.191Z,19.18
2023-04-24T03:53:43.297Z,19.07
2023-04-24T03:56:13.091Z,19.13
2023-04-24T03:58:42.185Z,19.08
2023-04-24T04:01:11.766Z,19.11
2023-04-24T04:03:48.240Z,19.14
2023-04-24T04:06:20.715Z,19.28
2023-04-24T04:08:48.284Z,19.43
2023-04-24T04:11:15.901Z,19.61
2023-04-24T04:13:43.408Z,19.76
2023-04-24T04:16:11.073Z,20.01
2023-04-24T04:18:39.037Z,20.24
2023-04-24T04:21:08.159Z,20.43
2023-04-24T04:23:36.166Z,20.71
2023-04-24T04:26:10.017Z,21.05
2023-04-24T04:28:55.940Z,21.41
2023-04-24T04:31:24.686Z,21.78
2023-04-24T04:33:53.378Z,22.10
2023-04-24T04:36:20.867Z,22.43
2023-04-24T04:38:53.011Z,22.73
2023-04-24T04:41:41.748Z,23.01
2023-04-24T04:44:11.119Z,23.31
2023-04-24T04:46:39.794Z,23.61
2023-04-24T04:49:29.757Z,23.92
2023-04-24T04:51:57.873Z,24.18
2023-04-24T04:54:27.164Z,24.42
2023-04-24T04:56:56.091Z,24.68
2023-04-24T04:59:23.577Z,24.91
2023-04-24T05:01:57.477Z,25.13
2023-04-24T05:04:25.381Z,25.37
2023-04-24T05:06:53.509Z,25.54
2023-04-24T05:09:22.987Z,25.68
2023-04-24T05:11:57.407Z,25.86
2023-04-24T05:14:26.729Z,26.00
2023-04-24T05:16:54.310Z,25.99
2023-04-24T05:19:24.284Z,26.06
2023-04-24T05:21:52.201Z,26.06
2023-04-24T05:24:19.711Z,26.03
2023-04-24T05:26:56.864Z,26.00
2023-04-24T05:29:32.272Z,26.05
2023-04-24T05:31:59.983Z,25.99
2023-04-24T05:34:30.446Z,25.93
2023-04-24T05:36:58.732Z,25.96
2023-04-24T05:39:26.916Z,26.00
2023-04-24T05:41:56.469Z,26.10
2023-04-24T05:44:24.028Z,26.13
2023-04-24T05:46:52.044Z,26.05
2023-04-24T05:49:19.632Z,25.86
2023-04-24T05:51:47.792Z,25.80
2023-04-24T05:54:16.651Z,25.83
2023-04-24T05:56:44.243Z,25.86
2023-04-24T05:59:15.561Z,25.82
2023-04-24T06:01:43.283Z,25.79
2023-04-24T06:04:16.368Z,25.73
2023-04-24T06:06:44.138Z,25.67
2023-04-24T06:09:11.732Z,25.70
2023-04-24T06:11:40.269Z,25.73
2023-04-24T06:14:11.051Z,25.70
2023-04-24T06:16:40.260Z,25.52
2023-04-24T06:19:28.000Z,25.45
2023-04-24T06:21:55.822Z,25.62
2023-04-24T06:24:23.364Z,25.79
2023-04-24T06:26:52.899Z,25.85
2023-04-24T06:29:20.486Z,25.78
2023-04-24T06:31:47.982Z,25.83
2023-04-24T06:34:15.529Z,25.82
2023-04-24T06:36:43.304Z,25.73
2023-04-24T06:39:10.868Z,25.90
2023-04-24T06:41:38.355Z,25.96
2023-04-24T06:44:05.776Z,26.00
2023-04-24T06:46:33.365Z,26.02
2023-04-24T06:49:01.915Z,26.13
2023-04-24T06:51:29.368Z,26.35
2023-04-24T06:53:59.558Z,26.49
2023-04-24T06:56:27.328Z,26.44
2023-04-24T06:58:54.869Z,26.55
2023-04-24T07:01:22.443Z,26.68
2023-04-24T07:03:50.162Z,26.68
2023-04-24T07:06:19.811Z,26.64
2023-04-24T07:08:47.853Z,26.66
2023-04-24T07:11:15.374Z,26.55
2023-04-24T07:13:45.916Z,26.69
2023-04-24T07:16:13.422Z,26.72
2023-04-24T07:18:41.099Z,26.64
2023-04-24T07:21:11.052Z,26.42
2023-04-24T07:23:42.785Z,26.22
2023-04-24T07:26:13.659Z,25.94
2023-04-24T07:28:46.826Z,25.89
2023-04-24T07:31:14.458Z,25.71
2023-04-24T07:33:41.916Z,25.69
2023-04-24T07:36:09.484Z,25.63
2023-04-24T07:38:36.951Z,25.50
2023-04-24T07:41:04.414Z,25.31
2023-04-24T07:43:31.972Z,25.01
2023-04-24T07:45:59.486Z,24.79
2023-04-24T07:48:27.753Z,24.57
2023-04-24T07:50:55.741Z,24.44
2023-04-24T07:53:23.334Z,24.24
2023-04-24T07:55:50.918Z,24.02
2023-04-24T07:58:18.579Z,23.92
2023-04-24T08:00:46.028Z,23.90
2023-04-24T08:03:14.054Z,23.83
2023-04-24T08:05:44.214Z,23.88
2023-04-24T08:08:11.796Z,23.80
2023-04-24T08:10:39.236Z,23.67
2023-04-24T08:13:06.711Z,23.70
2023-04-24T08:15:34.310Z,23.68
2023-04-24T08:18:02.162Z,23.70
2023-04-24T08:20:29.960Z,23.69
2023-04-24T08:22:57.896Z,23.72
2023-04-24T08:25:26.006Z,23.67
2023-04-24T08:27:53.509Z,23.65
2023-04-24T08:30:21.579Z,23.70
2023-04-24T08:32:49.294Z,23.60
2023-04-24T08:35:16.966Z,23.42
2023-04-24T08:37:44.610Z,23.19
2023-04-24T08:40:16.847Z,23.11
2023-04-24T08:42:45.705Z,22.57
2023-04-24T08:45:14.874Z,21.88
2023-04-24T08:47:43.730Z,21.50
2023-04-24T08:50:12.454Z,21.41
2023-04-24T08:52:39.909Z,21.24
2023-04-24T08:55:07.873Z,21.12
2023-04-24T08:57:37.180Z,20.91
2023-04-24T09:00:06.032Z,20.85
2023-04-24T09:02:36.526Z,20.79
2023-04-24T09:05:04.980Z,20.66
2023-04-24T09:07:35.752Z,20.59
2023-04-24T09:10:04.185Z,20.17
2023-04-24T09:12:31.753Z,19.99
2023-04-24T09:15:00.591Z,19.80
2023-04-24T09:17:29.687Z,19.66
2023-04-24T09:19:57.188Z,19.31
2023-04-24T09:22:25.250Z,19.16
2023-04-24T09:25:04.915Z,19.42
2023-04-24T09:27:32.806Z,18.96
2023-04-24T09:30:01.823Z,18.78
2023-04-24T09:32:33.021Z,18.65
2023-04-24T09:35:14.858Z,19.01
2023-04-24T09:37:45.147Z,18.77
2023-04-24T09:40:23.638Z,18.47
2023-04-24T09:42:56.746Z,18.66
2023-04-24T09:45:30.043Z,18.62
2023-04-24T09:47:57.832Z,18.45
2023-04-24T09:50:25.350Z,18.33
2023-04-24T09:53:24.913Z,18.66
2023-04-24T09:55:54.334Z,18.26
2023-04-24T09:58:28.135Z,18.38
2023-04-24T10:00:57.601Z,18.18
2023-04-24T10:03:31.265Z,18.30
2023-04-24T10:06:03.197Z,18.35
2023-04-24T10:08:38.783Z,18.30
2023-04-24T10:11:07.362Z,18.14
2023-04-24T10:13:36.807Z,18.08
2023-04-24T10:16:05.612Z,18.05
2023-04-24T10:18:34.105Z,17.98
2023-04-24T10:21:02.569Z,17.93
2023-04-24T10:23:31.585Z,17.87
2023-04-24T10:26:00.562Z,17.84
2023-04-24T10:28:30.813Z,17.81
2023-04-24T10:30:59.710Z,17.75
2023-04-24T10:33:28.115Z,17.74
2023-04-24T10:35:56.829Z,17.74
2023-04-24T10:38:28.083Z,17.74
2023-04-24T10:41:24.495Z,17.98
2023-04-24T10:44:08.257Z,17.92
2023-04-24T10:46:36.253Z,17.58
2023-04-24T10:49:10.059Z,17.70
2023-04-24T10:52:02.566Z,17.83
2023-04-24T10:54:30.064Z,17.58
2023-04-24T10:57:23.086Z,17.76
2023-04-24T11:00:11.245Z,17.61
2023-04-24T11:02:40.391Z,17.50
2023-04-24T11:05:08.939Z,17.49
2023-04-24T11:08:13.596Z,17.69
2023-04-24T11:10:48.938Z,17.56
2023-04-24T11:13:23.131Z,17.42
2023-04-24T11:16:24.352Z,17.63
2023-04-24T11:18:55.633Z,17.45
2023-04-24T11:21:23.914Z,17.40
2023-04-24T11:23:52.176Z,17.39
2023-04-24T11:26:22.554Z,17.42
2023-04-24T11:28:51.468Z,17.41
2023-04-24T11:31:49.980Z,17.62
2023-04-24T11:34:18.931Z,17.44
2023-04-24T11:36:49.552Z,17.47
2023-04-24T11:39:17.174Z,17.35
2023-04-24T11:41:44.713Z,17.39
2023-04-24T11:44:13.384Z,17.39
2023-04-24T11:46:41.585Z,17.37
2023-04-24T11:49:09.714Z,17.39
2023-04-24T11:51:51.002Z,17.38
2023-04-24T11:54:20.140Z,17.76
2023-04-24T11:56:51.163Z,17.57
2023-04-24T11:59:18.729Z,17.46
2023-04-24T12:01:47.144Z,17.46
2023-04-24T12:04:15.671Z,17.44
2023-04-24T12:07:06.330Z,17.68
2023-04-24T12:09:48.130Z,17.63
2023-04-24T12:12:18.273Z,17.61
2023-04-24T12:14:48.990Z,17.55
2023-04-24T12:17:17.657Z,17.56
2023-04-24T12:19:49.527Z,17.63
2023-04-24T12:22:17.044Z,17.55
2023-04-24T12:25:04.864Z,17.72
2023-04-24T12:27:34.256Z,17.56
2023-04-24T12:30:05.055Z,17.55
2023-04-24T12:32:33.280Z,17.58
2023-04-24T12:35:01.488Z,17.61
2023-04-24T12:37:34.840Z,17.74
2023-04-24T12:40:12.909Z,17.79
2023-04-24T12:42:45.721Z,17.85
2023-04-24T12:45:14.177Z,17.76
2023-04-24T12:47:42.890Z,17.74
2023-04-24T12:50:15.121Z,17.74
2023-04-24T12:52:43.933Z,17.69
2023-04-24T12:55:13.271Z,17.63
2023-04-24T12:57:41.273Z,17.64
2023-04-24T13:00:10.427Z,17.60
2023-04-24T13:02:38.343Z,17.54
2023-04-24T13:05:06.400Z,17.49
2023-04-24T13:07:35.348Z,17.49
2023-04-24T13:10:03.176Z,17.45
2023-04-24T13:12:31.351Z,17.43
2023-04-24T13:14:59.235Z,17.44
2023-04-24T13:17:26.770Z,17.40
2023-04-24T13:19:56.318Z,17.45
2023-04-24T13:22:23.962Z,17.36
2023-04-24T13:24:51.518Z,17.36
2023-04-24T13:27:19.774Z,17.36
2023-04-24T13:29:47.629Z,17.35
2023-04-24T13:32:15.201Z,17.33
2023-04-24T13:34:42.792Z,17.32
2023-04-24T13:37:10.362Z,17.32
2023-04-24T13:39:37.948Z,17.32
2023-04-24T13:42:05.453Z,17.33
2023-04-24T13:44:33.015Z,17.29
2023-04-24T13:47:01.010Z,17.25
2023-04-24T13:49:29.013Z,17.30
2023-04-24T13:51:57.594Z,17.29
2023-04-24T13:54:27.320Z,17.29
2023-04-24T13:56:55.058Z,17.24
2023-04-24T13:59:22.951Z,17.21
2023-04-24T14:01:50.814Z,17.16
2023-04-24T14:04:18.642Z,17.16
2023-04-24T14:06:46.436Z,17.15
2023-04-24T14:09:14.305Z,17.13
2023-04-24T14:11:42.131Z,17.11
2023-04-24T14:14:09.723Z,17.10
2023-04-24T14:16:37.454Z,17.09
2023-04-24T14:19:06.653Z,17.06
2023-04-24T14:21:34.526Z,17.01
2023-04-24T14:24:02.122Z,16.97
2023-04-24T14:26:29.929Z,16.94
2023-04-24T14:29:11.630Z,16.82
2023-04-24T14:31:42.907Z,16.71
2023-04-24T14:34:11.026Z,16.64
2023-04-24T14:36:39.010Z,16.56
2023-04-24T14:39:08.410Z,16.53
2023-04-24T14:41:37.233Z,16.44
2023-04-24T14:44:06.179Z,16.37
2023-04-24T14:46:34.115Z,16.30
2023-04-24T14:49:01.840Z,16.26
2023-04-24T14:51:29.338Z,16.26
2023-04-24T14:53:58.210Z,16.31
2023-04-24T14:56:25.788Z,16.15
2023-04-24T14:58:53.973Z,16.14
2023-04-24T15:01:21.762Z,16.13
2023-04-24T15:03:49.619Z,16.16
2023-04-24T15:06:17.676Z,16.03
2023-04-24T15:08:48.048Z,15.91
2023-04-24T15:11:16.956Z,15.67
2023-04-24T15:13:46.862Z,15.48
2023-04-24T15:16:14.865Z,15.41
2023-04-24T15:18:42.793Z,15.35
2023-04-24T15:21:10.265Z,15.34
2023-04-24T15:23:38.320Z,15.25
2023-04-24T15:26:06.040Z,15.10
2023-04-24T15:28:33.701Z,14.94
2023-04-24T15:31:01.215Z,14.82
2023-04-24T15:33:28.774Z,14.71
2023-04-24T15:35:56.292Z,14.73
2023-04-24T15:38:23.817Z,14.66
2023-04-24T15:40:51.295Z,14.54
2023-04-24T15:43:18.788Z,14.61
2023-04-24T15:45:46.369Z,14.61
2023-04-24T15:48:13.899Z,14.57
2023-04-24T15:50:41.457Z,14.59
2023-04-24T15:53:09.083Z,14.54
2023-04-24T15:55:37.684Z,14.54
2023-04-24T15:58:05.351Z,14.54
2023-04-24T16:00:34.685Z,14.54
2023-04-24T16:03:03.002Z,14.50
2023-04-24T16:05:31.417Z,14.47
2023-04-24T16:07:58.857Z,14.29
2023-04-24T16:10:27.307Z,14.35
2023-04-24T16:12:55.030Z,14.30
2023-04-24T16:15:22.961Z,14.28
2023-04-24T16:17:51.337Z,14.27
2023-04-24T16:20:19.214Z,14.17
2023-04-24T16:22:49.198Z,14.15
2023-04-24T16:25:19.339Z,14.09
2023-04-24T16:27:48.972Z,13.97
2023-04-24T16:30:16.956Z,13.99
2023-04-24T16:32:44.512Z,13.94
2023-04-24T16:35:12.014Z,13.95
2023-04-24T16:37:39.639Z,13.93
2023-04-24T16:40:11.193Z,13.86
2023-04-24T16:42:39.462Z,13.80
2023-04-24T16:45:07.946Z,13.80
2023-04-24T16:47:36.731Z,13.74
2023-04-24T16:50:04.872Z,13.84
2023-04-24T16:52:32.746Z,13.77
2023-04-24T16:55:00.355Z,13.74
2023-04-24T16:57:27.985Z,13.74
2023-04-24T16:59:55.693Z,13.77
2023-04-24T17:02:23.266Z,13.87
2023-04-24T17:04:51.145Z,13.87
2023-04-24T17:07:18.680Z,13.87
2023-04-24T17:09:46.448Z,13.92
2023-04-24T17:12:14.112Z,13.99
2023-04-24T17:14:41.978Z,13.96
2023-04-24T17:17:10.623Z,13.98
2023-04-24T17:19:38.148Z,14.01
2023-04-24T17:22:05.996Z,14.03
2023-04-24T17:24:34.150Z,14.03
2023-04-24T17:27:08.417Z,14.04
2023-04-24T17:29:42.337Z,14.07
2023-04-24T17:32:10.133Z,14.08
2023-04-24T17:34:37.719Z,14.09
2023-04-24T17:37:05.498Z,14.10
2023-04-24T17:39:33.089Z,14.10
2023-04-24T17:42:03.610Z,14.12
2023-04-24T17:44:31.128Z,14.15
2023-04-24T17:46:58.584Z,14.25
2023-04-24T17:49:40.015Z,14.49
2023-04-24T17:52:07.637Z,14.43
2023-04-24T17:54:35.397Z,14.46
2023-04-24T17:57:03.355Z,14.38
2023-04-24T17:59:31.093Z,14.38
2023-04-24T18:02:01.083Z,14.44
2023-04-24T18:04:28.958Z,14.30
2023-04-24T18:06:56.662Z,14.13
2023-04-24T18:09:24.182Z,14.08
2023-04-24T18:11:51.734Z,13.78
2023-04-24T18:14:19.381Z,13.63
2023-04-24T18:16:46.967Z,13.43
2023-04-24T18:19:14.529Z,13.45
2023-04-24T18:21:41.965Z,13.41
2023-04-24T18:24:09.862Z,13.35
2023-04-24T18:26:37.366Z,13.27
2023-04-24T18:29:04.916Z,13.26
2023-04-24T18:31:32.826Z,13.14
2023-04-24T18:34:00.283Z,13.05
2023-04-24T18:36:27.990Z,12.97
2023-04-24T18:38:55.518Z,12.91
2023-04-24T18:41:23.063Z,12.85
2023-04-24T18:43:52.189Z,12.88
2023-04-24T18:46:19.788Z,12.93
2023-04-24T18:48:47.637Z,13.07
2023-04-24T18:51:15.315Z,13.17
2023-04-24T18:53:42.921Z,13.09
2023-04-24T18:56:10.428Z,13.10
2023-04-24T18:58:37.924Z,12.95
2023-04-24T19:01:07.543Z,12.75
2023-04-24T19:03:36.225Z,12.55
2023-04-24T19:06:03.863Z,12.47
2023-04-24T19:08:31.392Z,12.53
2023-04-24T19:10:59.858Z,12.47
2023-04-24T19:13:27.373Z,12.42
2023-04-24T19:15:54.882Z,12.51
2023-04-24T19:18:22.457Z,12.64
2023-04-24T19:20:50.037Z,12.71
2023-04-24T19:23:17.636Z,12.75
2023-04-24T19:25:45.242Z,12.70
2023-04-24T19:28:12.724Z,12.72
2023-04-24T19:30:40.994Z,12.70
2023-04-24T19:33:08.566Z,12.70
2023-04-24T19:35:36.333Z,12.65
2023-04-24T19:38:03.847Z,12.73
2023-04-24T19:40:31.857Z,12.73
2023-04-24T19:42:59.300Z,12.89
2023-04-24T19:45:26.830Z,12.97
2023-04-24T19:47:54.863Z,13.15
2023-04-24T19:50:22.574Z,13.22
2023-04-24T19:52:50.082Z,13.29
2023-04-24T19:55:17.833Z,13.24
2023-04-24T19:57:45.739Z,13.25
2023-04-24T20:00:13.934Z,13.24
2023-04-24T20:02:41.850Z,13.24
2023-04-24T20:05:10.087Z,13.19
2023-04-24T20:07:37.692Z,13.12
2023-04-24T20:10:05.690Z,13.19
2023-04-24T20:12:33.381Z,13.24
2023-04-24T20:15:01.159Z,13.41
2023-04-24T20:17:28.722Z,13.53
2023-04-24T20:19:56.232Z,13.65
2023-04-24T20:22:23.958Z,13.67
2023-04-24T20:24:51.990Z,13.73
2023-04-24T20:27:19.701Z,13.70
2023-04-24T20:29:47.219Z,13.64
2023-04-24T20:32:14.793Z,13.53
2023-04-24T20:34:42.682Z,13.45
2023-04-24T20:37:10.213Z,13.35
2023-04-24T20:39:39.206Z,13.23
2023-04-24T20:42:07.901Z,13.06
2023-04-24T20:44:35.307Z,12.86
2023-04-24T20:47:03.129Z,12.85
2023-04-24T20:49:30.679Z,12.78
2023-04-24T20:51:59.521Z,12.84
2023-04-24T20:54:26.956Z,12.74
2023-04-24T20:56:54.461Z,12.58
2023-04-24T20:59:21.881Z,12.47
2023-04-24T21:01:51.050Z,12.42
2023-04-24T21:04:18.706Z,12.34
2023-04-24T21:06:46.335Z,12.32
2023-04-24T21:09:13.841Z,12.40
2023-04-24T21:11:41.601Z,12.41
2023-04-24T21:14:09.480Z,12.49
2023-04-24T21:16:37.559Z,12.51
2023-04-24T21:19:05.553Z,12.49
2023-04-24T21:21:34.332Z,12.50
2023-04-24T21:24:04.717Z,12.59
2023-04-24T21:26:32.410Z,12.37
2023-04-24T21:28:59.930Z,12.32
2023-04-24T21:31:27.509Z,12.46
2023-04-24T21:33:55.003Z,12.60
2023-04-24T21:36:22.485Z,12.53
2023-04-24T21:38:50.095Z,12.54
2023-04-24T21:41:17.631Z,12.61
2023-04-24T21:43:46.285Z,12.49
2023-04-24T21:46:15.378Z,12.61
2023-04-24T21:48:42.881Z,12.58
2023-04-24T21:51:10.812Z,12.71
2023-04-24T21:53:38.328Z,12.84
2023-04-24T21:56:06.529Z,13.05
2023-04-24T21:58:35.210Z,13.19
2023-04-24T22:01:02.765Z,13.28
2023-04-24T22:03:30.967Z,13.27
2023-04-24T22:05:58.565Z,13.28
2023-04-24T22:08:26.380Z,13.33
2023-04-24T22:10:54.959Z,13.29
2023-04-24T22:13:22.538Z,13.28
2023-04-24T22:15:53.779Z,13.29
2023-04-24T22:18:24.600Z,13.22
2023-04-24T22:20:55.736Z,13.21
2023-04-24T22:23:23.242Z,13.19
2023-04-24T22:25:50.895Z,13.16
2023-04-24T22:28:18.285Z,13.11
2023-04-24T22:30:45.934Z,13.12
2023-04-24T22:33:13.424Z,13.10
2023-04-24T22:35:41.006Z,13.07
2023-04-24T22:38:08.570Z,13.04
2023-04-24T22:40:36.156Z,13.01
2023-04-24T22:43:04.040Z,13.02
2023-04-24T22:45:31.489Z,13.01
2023-04-24T22:47:59.062Z,13.03
2023-04-24T22:50:26.729Z,13.02
2023-04-24T22:52:54.309Z,13.06
2023-04-24T22:55:22.061Z,13.03
2023-04-24T22:57:50.287Z,13.08
2023-04-24T23:00:17.950Z,13.10
2023-04-24T23:02:45.585Z,13.10
2023-04-24T23:05:13.159Z,13.14
2023-04-24T23:07:41.144Z,13.10
2023-04-24T23:10:09.111Z,13.12
2023-04-24T23:12:36.602Z,13.09
2023-04-24T23:15:04.841Z,13.08
2023-04-24T23:17:32.621Z,13.06
2023-04-24T23:20:01.172Z,13.05
2023-04-24T23:22:29.023Z,13.00
2023-04-24T23:24:56.472Z,13.02
2023-04-24T23:27:23.954Z,13.02
2023-04-24T23:29:52.217Z,13.00
2023-04-24T23:32:19.693Z,13.01
2023-04-24T23:34:47.144Z,12.99
2023-04-24T23:37:15.215Z,12.98
2023-04-24T23:39:43.994Z,12.97
2023-04-24T23:42:11.472Z,12.98
2023-04-24T23:44:38.959Z,12.94
2023-04-24T23:47:06.553Z,12.92
2023-04-24T23:49:34.241Z,12.90
2023-04-24T23:52:01.802Z,12.93
2023-04-24T23:54:31.123Z,12.91
2023-04-24T23:56:58.886Z,12.86
2023-04-24T23:59:29.411Z,12.87
